EKVG Airport Information

Runway Information
Runway 13 Length 5902 ft width 98 ft
Elevation 268 ft Threshold 0 ft Heading 118
Runway 31 Length 5902 ft Width 98 ft
Elevation 252 ft Threshold 0 ft Heading 298
Airport Frequencies
Type AFIS Name AFIS Frequency 124.85 MHZ
Airport Navaids
Type NDB Name Myggenes Frequency 337 KHZ
Type NDB Name Nolso Frequency 404 KHZ
Type NDB Name Vagar Frequency 348 KHZ
Airport Weather Information & NOTAM
ADDS - METARS form results

(1511 UTC 08 December 2019)
Data provider http://aviationweather.gov/metar/data/
 
METAR text: EKVG 081450Z AUTO 03020KT 9999 -RA SCT022/// SCT035/// 03/M00 Q0975
Conditions at: EKVG (SORVAAG/VAGAR , DK) observed 1450 UTC 08 December 2019
Temperature: 3.0°C (37°F)
Dewpoint: 0.0°C (32°F) [RH = 81%]
Pressure (altimeter): 28.79 inches Hg (975.0 mb)
Winds: from the NNE (30 degrees) at 23 MPH (20 knots; 10.3 m/s)
Visibility: 6 or more miles (10+ km)
Ceiling: at least 12,000 feet AGL
Clouds: scattered clouds at 2200 feet AGL
scattered clouds at 3500 feet AGL
Weather: -RA  (light rain)

METAR text: EKVG 081420Z AUTO 03020G32KT 9999 -RA FEW034/// FEW039/// 04/M01 Q0973
Conditions at: EKVG (SORVAAG/VAGAR , DK) observed 1420 UTC 08 December 2019
Temperature: 4.0°C (39°F)
Dewpoint: -1.0°C (30°F) [RH = 70%]
Pressure (altimeter): 28.73 inches Hg (973.0 mb)
Winds: from the NNE (30 degrees) at 23 MPH (20 knots; 10.3 m/s)
gusting to 37 MPH (32 knots; 16.5 m/s)
Visibility: 6 or more miles (10+ km)
Ceiling: at least 12,000 feet AGL
Clouds: few clouds at 3400 feet AGL
few clouds at 3900 feet AGL
Weather: -RA  (light rain)

Forecast for: EKVG (SORVAAG/VAGAR , DK)
Text: TAF EKVG 081432Z 0815/0821 04020KT 8000 -RASN BKN020
Forecast period: 1500 to 2100 UTC 08 December 2019
Forecast type: FROM: standard forecast or significant change
Winds: from the NE (40 degrees) at 23 MPH (20 knots; 10.3 m/s)
Visibility: 5 miles (8 km)
Ceiling: 2000 feet AGL
Clouds: broken clouds at 2000 feet AGL
Weather: -RA -SN  (light rain, light snow)
Text: TEMPO 0815/0821 02028G42KT
Forecast period: 1500 to 2100 UTC 08 December 2019
Forecast type: TEMPORARY: The following changes expected for less than half the time period
Winds: from the NNE (20 degrees) at 32 MPH (28 knots; 14.4 m/s)
gusting to 48 MPH (42 knots; 21.6 m/s)
Visibility: missing
Ceiling: unknown
Clouds: missing
Weather: no significant weather forecast for this period